createdAt,value
2019-03-20T00:01:43.203Z,3.30
2019-03-20T00:04:04.519Z,4.43
2019-03-20T00:06:35.871Z,4.10
2019-03-20T00:09:09.676Z,3.20
2019-03-20T00:11:40.451Z,3.53
2019-03-20T00:14:11.007Z,3.90
2019-03-20T00:16:41.467Z,3.23
2019-03-20T00:19:11.895Z,3.73
2019-03-20T00:21:42.530Z,3.50
2019-03-20T00:24:12.934Z,3.50
2019-03-20T00:26:43.465Z,3.30
2019-03-20T00:29:13.896Z,3.60
2019-03-20T00:31:44.384Z,3.60
2019-03-20T00:34:15.644Z,3.53
2019-03-20T00:36:46.503Z,3.20
2019-03-20T00:39:17.044Z,3.67
2019-03-20T00:41:47.525Z,3.50
2019-03-20T00:44:17.958Z,3.47
2019-03-20T00:46:48.405Z,3.50
2019-03-20T00:49:18.873Z,3.27
2019-03-20T00:51:49.688Z,3.60
2019-03-20T00:54:20.126Z,3.67
2019-03-20T00:56:50.592Z,3.93
2019-03-20T00:59:21.186Z,4.13
2019-03-20T01:01:51.655Z,3.83
2019-03-20T01:04:22.097Z,3.53
2019-03-20T01:06:52.592Z,3.57
2019-03-20T01:09:23.016Z,3.30
2019-03-20T01:11:53.452Z,3.60
2019-03-20T01:14:23.891Z,3.37
2019-03-20T01:16:55.284Z,3.70
2019-03-20T01:19:25.695Z,3.50
2019-03-20T01:21:56.138Z,3.23
2019-03-20T01:24:26.570Z,3.60
2019-03-20T01:26:57.012Z,3.80
2019-03-20T01:29:27.509Z,3.77
2019-03-20T01:31:58.013Z,3.70
2019-03-20T01:34:28.466Z,3.63
2019-03-20T01:36:59.040Z,3.67
2019-03-20T01:39:29.465Z,3.70
2019-03-20T01:41:59.925Z,3.80
2019-03-20T01:44:30.368Z,3.90
2019-03-20T01:47:00.802Z,3.33
2019-03-20T01:49:31.229Z,3.70
2019-03-20T01:52:01.701Z,3.83
2019-03-20T01:54:32.287Z,3.97
2019-03-20T01:57:03.218Z,3.83
2019-03-20T01:59:33.654Z,3.90
2019-03-20T02:02:06.530Z,3.30
2019-03-20T02:04:37.588Z,3.77
2019-03-20T02:07:08.006Z,3.50
2019-03-20T02:09:39.112Z,3.50
2019-03-20T02:12:10.321Z,4.13
2019-03-20T02:14:41.017Z,3.50
2019-03-20T02:17:11.494Z,3.70
2019-03-20T02:19:41.927Z,3.80
2019-03-20T02:22:12.441Z,3.87
2019-03-20T02:24:42.852Z,3.73
2019-03-20T02:27:13.271Z,3.67
2019-03-20T02:29:43.740Z,4.20
2019-03-20T02:32:14.217Z,3.40
2019-03-20T02:34:44.667Z,3.33
2019-03-20T02:37:15.239Z,3.77
2019-03-20T02:39:45.665Z,3.63
2019-03-20T02:42:16.148Z,3.23
2019-03-20T02:44:46.627Z,4.40
2019-03-20T02:47:17.097Z,3.60
2019-03-20T02:49:47.529Z,3.60
2019-03-20T02:52:17.963Z,3.23
2019-03-20T02:54:48.461Z,3.90
2019-03-20T02:57:19.083Z,4.00
2019-03-20T02:59:49.537Z,3.23
2019-03-20T03:02:19.963Z,3.37
2019-03-20T03:04:50.514Z,3.37
2019-03-20T03:07:21.109Z,4.10
2019-03-20T03:09:51.787Z,3.10
2019-03-20T03:12:22.399Z,3.17
2019-03-20T03:14:52.879Z,2.70
2019-03-20T03:17:23.419Z,3.30
2019-03-20T03:19:53.924Z,3.23
2019-03-20T03:22:24.357Z,2.63
2019-03-20T03:24:54.818Z,3.30
2019-03-20T03:27:25.828Z,2.73
2019-03-20T03:29:56.333Z,2.83
2019-03-20T03:32:26.790Z,3.40
2019-03-20T03:34:58.020Z,3.00
2019-03-20T03:37:28.497Z,2.40
2019-03-20T03:39:58.959Z,2.80
2019-03-20T03:42:29.626Z,2.50
2019-03-20T03:45:00.297Z,3.00
2019-03-20T03:47:31.088Z,2.70
2019-03-20T03:50:01.478Z,2.47
2019-03-20T03:52:31.902Z,2.37
2019-03-20T03:55:02.357Z,3.10
2019-03-20T03:57:32.806Z,3.07
2019-03-20T04:00:03.234Z,3.00
2019-03-20T04:02:33.907Z,2.73
2019-03-20T04:05:05.187Z,3.10
2019-03-20T04:07:35.644Z,3.30
2019-03-20T04:10:07.496Z,3.43
2019-03-20T04:12:37.952Z,2.87
2019-03-20T04:15:10.754Z,2.33
2019-03-20T04:17:41.237Z,2.80
2019-03-20T04:20:13.272Z,2.57
2019-03-20T04:22:43.743Z,2.50
2019-03-20T04:25:15.130Z,2.63
2019-03-20T04:27:45.612Z,2.50
2019-03-20T04:30:16.159Z,2.97
2019-03-20T04:32:46.624Z,2.40
2019-03-20T04:35:17.040Z,2.87
2019-03-20T04:37:47.536Z,2.80
2019-03-20T04:40:18.100Z,2.83
2019-03-20T04:42:48.548Z,3.30
2019-03-20T04:45:19.007Z,3.00
2019-03-20T04:47:49.502Z,2.77
2019-03-20T04:50:20.033Z,2.97
2019-03-20T04:52:50.506Z,3.10
2019-03-20T04:55:21.018Z,3.23
2019-03-20T04:57:51.525Z,2.67
2019-03-20T05:00:22.000Z,2.47
2019-03-20T05:02:52.476Z,2.80
2019-03-20T05:05:22.892Z,2.50
2019-03-20T05:07:53.343Z,2.57
2019-03-20T05:10:24.059Z,2.80
2019-03-20T05:12:54.910Z,3.10
2019-03-20T05:15:25.415Z,2.93
2019-03-20T05:17:55.905Z,2.90
2019-03-20T05:20:26.331Z,2.53
2019-03-20T05:22:56.801Z,2.93
2019-03-20T05:25:27.854Z,2.83
2019-03-20T05:27:58.430Z,3.03
2019-03-20T05:30:28.891Z,3.10
2019-03-20T05:32:59.280Z,3.53
2019-03-20T05:35:29.817Z,2.90
2019-03-20T05:38:00.265Z,3.43
2019-03-20T05:40:31.214Z,2.80
2019-03-20T05:43:01.633Z,3.00
2019-03-20T05:45:32.056Z,2.80
2019-03-20T05:48:02.678Z,3.30
2019-03-20T05:50:33.325Z,3.40
2019-03-20T05:53:03.767Z,3.40
2019-03-20T05:55:34.220Z,3.10
2019-03-20T05:58:04.674Z,3.90
2019-03-20T06:00:36.424Z,3.77
2019-03-20T06:03:06.888Z,3.60
2019-03-20T06:05:37.324Z,3.30
2019-03-20T06:08:08.953Z,3.40
2019-03-20T06:10:39.392Z,3.47
2019-03-20T06:13:11.473Z,3.73
2019-03-20T06:15:41.978Z,3.77
2019-03-20T06:18:12.781Z,3.50
2019-03-20T06:20:44.317Z,4.10
2019-03-20T06:23:14.841Z,4.33
2019-03-20T06:25:45.317Z,4.60
2019-03-20T06:28:15.736Z,5.07
2019-03-20T06:30:47.045Z,4.70
2019-03-20T06:33:17.481Z,4.93
2019-03-20T06:35:47.932Z,4.93
2019-03-20T06:38:19.668Z,4.80
2019-03-20T06:40:50.324Z,4.67
2019-03-20T06:43:20.829Z,6.00
2019-03-20T06:45:51.780Z,6.07
2019-03-20T06:48:22.240Z,6.50
2019-03-20T06:50:53.273Z,5.83
2019-03-20T06:53:23.713Z,6.57
2019-03-20T06:55:54.372Z,6.63
2019-03-20T06:58:27.039Z,6.03
2019-03-20T07:01:22.968Z,7.20
2019-03-20T07:04:18.242Z,8.30
2019-03-20T07:07:05.765Z,8.37
2019-03-20T07:09:56.026Z,8.57
2019-03-20T07:12:26.454Z,10.10
2019-03-20T07:14:58.393Z,12.67
2019-03-20T07:17:28.978Z,16.23
2019-03-20T07:19:59.723Z,12.50
2019-03-20T07:22:31.085Z,17.70
2019-03-20T07:25:02.565Z,20.03
2019-03-20T07:27:33.002Z,20.87
2019-03-20T07:30:03.451Z,20.73
2019-03-20T07:32:33.896Z,21.07
2019-03-20T07:35:05.888Z,20.93
2019-03-20T07:37:36.397Z,19.07
2019-03-20T07:40:09.313Z,20.13
2019-03-20T07:42:41.077Z,21.00
2019-03-20T07:45:12.978Z,20.30
2019-03-20T07:47:43.567Z,19.77
2019-03-20T07:50:14.866Z,19.83
2019-03-20T07:52:45.529Z,20.90
2019-03-20T07:55:15.982Z,20.13
2019-03-20T07:57:46.456Z,21.23
2019-03-20T08:00:17.623Z,21.93
2019-03-20T08:02:48.050Z,20.27
2019-03-20T08:05:28.705Z,21.90
2019-03-20T08:07:51.609Z,21.57
2019-03-20T08:10:22.793Z,21.83
2019-03-20T08:12:54.004Z,21.70
2019-03-20T08:15:24.541Z,22.53
2019-03-20T08:17:55.973Z,23.37
2019-03-20T08:20:26.854Z,22.63
2019-03-20T08:22:57.317Z,22.27
2019-03-20T08:25:27.902Z,22.43
2019-03-20T08:27:59.082Z,23.27
2019-03-20T08:30:31.571Z,23.17
2019-03-20T08:33:01.941Z,23.83
2019-03-20T08:35:32.340Z,23.07
2019-03-20T08:38:03.016Z,22.47
2019-03-20T08:40:33.433Z,21.67
2019-03-20T08:43:04.373Z,22.33
2019-03-20T08:45:34.796Z,22.90
2019-03-20T08:48:08.470Z,21.80
2019-03-20T08:50:37.923Z,20.80
2019-03-20T08:53:12.009Z,22.30
2019-03-20T08:55:42.605Z,21.73
2019-03-20T08:58:14.198Z,21.33
2019-03-20T09:00:46.626Z,21.03
2019-03-20T09:03:17.122Z,21.20
2019-03-20T09:05:47.808Z,22.40
2019-03-20T09:08:28.527Z,20.33
2019-03-20T09:10:51.518Z,21.27
2019-03-20T09:13:22.027Z,20.33
2019-03-20T09:15:55.159Z,19.87
2019-03-20T09:18:26.983Z,20.93
2019-03-20T09:20:57.953Z,20.03
2019-03-20T09:23:28.410Z,21.00
2019-03-20T09:25:58.887Z,19.57
2019-03-20T09:28:30.705Z,20.10
2019-03-20T09:31:01.467Z,20.40
2019-03-20T09:33:31.993Z,18.10
2019-03-20T09:36:02.643Z,18.50
2019-03-20T09:38:42.914Z,19.07
2019-03-20T09:41:06.951Z,18.13
2019-03-20T09:43:38.231Z,17.83
2019-03-20T09:46:09.754Z,17.87
2019-03-20T09:48:40.627Z,18.37
2019-03-20T09:51:12.661Z,17.10
2019-03-20T09:53:43.139Z,17.97
2019-03-20T09:56:14.068Z,17.80
2019-03-20T09:58:44.524Z,16.17
2019-03-20T10:01:15.117Z,17.07
2019-03-20T10:03:46.964Z,16.83
2019-03-20T10:06:17.421Z,16.63
2019-03-20T10:08:54.071Z,16.73
2019-03-20T10:11:20.128Z,16.60
2019-03-20T10:13:51.901Z,16.53
2019-03-20T10:16:23.405Z,16.23
2019-03-20T10:18:53.966Z,15.83
2019-03-20T10:21:25.645Z,17.23
2019-03-20T10:23:56.079Z,16.07
2019-03-20T10:26:28.052Z,16.50
2019-03-20T10:28:59.704Z,16.03
2019-03-20T10:31:30.600Z,16.80
2019-03-20T10:34:03.201Z,16.10
2019-03-20T10:36:35.466Z,16.70
2019-03-20T10:39:09.192Z,15.50
2019-03-20T10:41:40.186Z,16.03
2019-03-20T10:44:10.699Z,15.70
2019-03-20T10:46:42.041Z,15.10
2019-03-20T10:49:12.583Z,15.70
2019-03-20T10:51:45.012Z,14.93
2019-03-20T10:54:16.580Z,16.23
2019-03-20T10:56:48.325Z,14.43
2019-03-20T10:59:19.275Z,14.13
2019-03-20T11:01:51.179Z,14.90
2019-03-20T11:04:22.723Z,14.93
2019-03-20T11:06:54.046Z,14.23
2019-03-20T11:09:25.944Z,15.40
2019-03-20T11:11:56.917Z,14.93
2019-03-20T11:14:28.061Z,16.07
2019-03-20T11:16:59.740Z,15.07
2019-03-20T11:19:30.827Z,15.43
2019-03-20T11:22:02.039Z,15.40
2019-03-20T11:24:33.400Z,15.87
2019-03-20T11:27:04.240Z,15.77
2019-03-20T11:29:34.768Z,15.10
2019-03-20T11:32:06.446Z,16.50
2019-03-20T11:34:37.128Z,17.37
2019-03-20T11:37:07.657Z,17.10
2019-03-20T11:39:38.417Z,17.53
2019-03-20T11:42:08.891Z,17.60
2019-03-20T11:44:39.347Z,16.40
2019-03-20T11:47:09.844Z,18.07
2019-03-20T11:49:40.310Z,16.90
2019-03-20T11:52:11.700Z,18.13
2019-03-20T11:54:43.461Z,17.87
2019-03-20T11:57:14.158Z,17.97
2019-03-20T11:59:45.757Z,19.33
2019-03-20T12:02:27.484Z,18.40
2019-03-20T12:04:48.414Z,18.10
2019-03-20T12:07:19.255Z,18.63
2019-03-20T12:09:49.719Z,19.00
2019-03-20T12:12:20.159Z,19.43
2019-03-20T12:14:50.639Z,18.17
2019-03-20T12:17:21.114Z,18.37
2019-03-20T12:19:51.753Z,18.73
2019-03-20T12:22:22.204Z,18.10
2019-03-20T12:24:52.738Z,18.67
2019-03-20T12:27:23.275Z,17.33
2019-03-20T12:29:56.347Z,19.30
2019-03-20T12:32:26.776Z,19.07
2019-03-20T12:34:57.326Z,19.30
2019-03-20T12:37:27.768Z,19.67
2019-03-20T12:39:58.299Z,18.97
2019-03-20T12:42:28.835Z,18.70
2019-03-20T12:44:59.367Z,20.47
2019-03-20T12:47:29.800Z,19.63
2019-03-20T12:50:01.671Z,19.47
2019-03-20T12:52:32.175Z,19.37
2019-03-20T12:55:03.164Z,19.50
2019-03-20T12:57:33.631Z,19.67
2019-03-20T13:00:05.009Z,18.97
2019-03-20T13:02:35.682Z,20.10
2019-03-20T13:05:09.018Z,19.97
2019-03-20T13:07:39.438Z,20.93
2019-03-20T13:10:12.612Z,21.07
2019-03-20T13:12:43.768Z,21.27
2019-03-20T13:15:20.810Z,20.63
2019-03-20T13:17:52.836Z,20.07
2019-03-20T13:20:23.473Z,20.80
2019-03-20T13:23:04.413Z,21.67
2019-03-20T13:25:34.854Z,21.80
2019-03-20T13:28:05.366Z,21.30
2019-03-20T13:30:40.583Z,21.93
2019-03-20T13:33:11.172Z,21.67
2019-03-20T13:35:41.625Z,20.87
2019-03-20T13:38:13.274Z,21.67
2019-03-20T13:40:44.900Z,22.10
2019-03-20T13:43:15.470Z,21.57
2019-03-20T13:45:45.933Z,22.00
2019-03-20T13:48:17.862Z,22.37
2019-03-20T13:50:49.053Z,22.00
2019-03-20T13:53:19.503Z,22.50
2019-03-20T13:55:49.963Z,22.60
2019-03-20T13:58:21.016Z,22.67
2019-03-20T14:00:52.087Z,22.57
2019-03-20T14:03:22.532Z,21.97
2019-03-20T14:05:53.005Z,23.37
2019-03-20T14:08:23.781Z,22.17
2019-03-20T14:10:54.423Z,22.93
2019-03-20T14:13:26.567Z,22.70
2019-03-20T14:15:58.202Z,23.10
2019-03-20T14:18:29.166Z,22.60
2019-03-20T14:21:00.672Z,23.50
2019-03-20T14:23:31.108Z,23.13
2019-03-20T14:26:01.605Z,22.87
2019-03-20T14:28:33.380Z,23.80
2019-03-20T14:31:03.873Z,22.43
2019-03-20T14:33:34.292Z,23.13
2019-03-20T14:36:04.942Z,23.83
2019-03-20T14:38:35.760Z,23.87
2019-03-20T14:41:06.191Z,23.30
2019-03-20T14:43:37.805Z,24.40
2019-03-20T14:46:09.003Z,25.57
2019-03-20T14:48:39.543Z,24.37
2019-03-20T14:51:11.170Z,25.53
2019-03-20T14:53:42.166Z,24.23
2019-03-20T14:56:12.566Z,25.33
2019-03-20T14:58:44.882Z,25.20
2019-03-20T15:01:15.321Z,24.53
2019-03-20T15:03:46.173Z,26.67
2019-03-20T15:06:17.594Z,26.07
2019-03-20T15:08:48.686Z,26.27
2019-03-20T15:11:19.243Z,26.27
2019-03-20T15:13:49.981Z,26.73
2019-03-20T15:16:20.399Z,27.40
2019-03-20T15:18:51.103Z,29.80
2019-03-20T15:21:21.550Z,27.40
2019-03-20T15:23:52.058Z,28.63
2019-03-20T15:26:22.534Z,30.03
2019-03-20T15:28:54.284Z,29.43
2019-03-20T15:31:25.556Z,28.73
2019-03-20T15:33:59.534Z,30.43
2019-03-20T15:36:30.618Z,30.77
2019-03-20T15:39:01.246Z,30.17
2019-03-20T15:41:31.669Z,31.07
2019-03-20T15:44:02.856Z,31.20
2019-03-20T15:46:34.088Z,31.73
2019-03-20T15:49:05.007Z,32.90
2019-03-20T15:51:37.154Z,32.50
2019-03-20T15:54:08.847Z,31.23
2019-03-20T15:56:39.335Z,31.87
2019-03-20T15:59:09.802Z,32.67
2019-03-20T16:01:41.915Z,32.03
2019-03-20T16:04:12.391Z,32.93
2019-03-20T16:06:43.713Z,33.63
2019-03-20T16:09:14.194Z,33.63
2019-03-20T16:11:44.663Z,32.80
2019-03-20T16:14:15.157Z,32.70
2019-03-20T16:16:45.594Z,32.20
2019-03-20T16:19:17.545Z,32.10
2019-03-20T16:21:48.007Z,32.33
2019-03-20T16:24:19.841Z,33.37
2019-03-20T16:26:50.474Z,32.13
2019-03-20T16:29:21.049Z,32.77
2019-03-20T16:31:51.477Z,34.50
2019-03-20T16:34:23.233Z,32.60
2019-03-20T16:36:53.696Z,32.43
2019-03-20T16:39:24.216Z,32.77
2019-03-20T16:41:54.663Z,32.73
2019-03-20T16:44:25.113Z,32.97
2019-03-20T16:46:56.171Z,33.00
2019-03-20T16:49:26.589Z,32.37
2019-03-20T16:51:57.103Z,31.47
2019-03-20T16:54:30.169Z,32.37
2019-03-20T16:57:00.593Z,32.40
2019-03-20T16:59:33.620Z,32.40
2019-03-20T17:02:04.250Z,32.10
2019-03-20T17:04:36.016Z,33.03
2019-03-20T17:07:06.772Z,32.20
2019-03-20T17:09:37.928Z,32.73
2019-03-20T17:12:09.669Z,31.10
2019-03-20T17:14:41.892Z,31.77
2019-03-20T17:17:14.016Z,30.73
2019-03-20T17:19:44.515Z,31.73
2019-03-20T17:22:16.891Z,30.83
2019-03-20T17:24:48.258Z,31.23
2019-03-20T17:27:18.686Z,31.83
2019-03-20T17:29:49.524Z,33.50
2019-03-20T17:32:21.105Z,31.17
2019-03-20T17:34:51.531Z,31.67
2019-03-20T17:37:21.963Z,32.30
2019-03-20T17:39:52.396Z,31.17
2019-03-20T17:42:23.976Z,31.47
2019-03-20T17:44:54.471Z,32.27
2019-03-20T17:47:24.901Z,31.50
2019-03-20T17:49:55.377Z,30.93
2019-03-20T17:52:25.862Z,32.77
2019-03-20T17:54:56.301Z,32.43
2019-03-20T17:57:27.879Z,31.90
2019-03-20T17:59:58.950Z,35.00
2019-03-20T18:02:29.712Z,34.47
2019-03-20T18:05:02.983Z,34.67
2019-03-20T18:07:35.133Z,35.10
2019-03-20T18:10:08.088Z,35.07
2019-03-20T18:12:38.625Z,36.53
2019-03-20T18:15:13.184Z,37.17
2019-03-20T18:17:43.647Z,35.90
2019-03-20T18:20:14.799Z,37.20
2019-03-20T18:22:46.593Z,37.70
2019-03-20T18:25:18.692Z,36.93
2019-03-20T18:27:51.042Z,36.87
2019-03-20T18:30:23.033Z,36.80
2019-03-20T18:32:53.583Z,37.80
2019-03-20T18:35:24.492Z,36.43
2019-03-20T18:37:54.955Z,39.07
2019-03-20T18:40:25.498Z,37.20
2019-03-20T18:42:57.837Z,39.33
2019-03-20T18:45:28.650Z,39.07
2019-03-20T18:47:59.115Z,39.90
2019-03-20T18:50:30.829Z,41.67
2019-03-20T18:53:01.273Z,40.73
2019-03-20T18:55:31.708Z,40.33
2019-03-20T18:58:02.235Z,40.97
2019-03-20T19:00:32.746Z,41.53
2019-03-20T19:03:03.666Z,41.73
2019-03-20T19:06:08.955Z,40.50
2019-03-20T19:08:39.768Z,42.17
2019-03-20T19:11:10.412Z,41.97
2019-03-20T19:13:40.966Z,42.00
2019-03-20T19:16:11.983Z,42.73
2019-03-20T19:18:43.263Z,41.73
2019-03-20T19:21:13.940Z,41.87
2019-03-20T19:23:49.404Z,43.33
2019-03-20T19:26:19.837Z,44.20
2019-03-20T19:28:50.267Z,43.73
2019-03-20T19:31:20.686Z,45.83
2019-03-20T19:33:51.331Z,46.57
2019-03-20T19:36:22.184Z,46.87
2019-03-20T19:38:52.880Z,45.33
2019-03-20T19:41:23.331Z,45.83
2019-03-20T19:43:53.785Z,46.67
2019-03-20T19:46:25.900Z,46.57
2019-03-20T19:48:56.473Z,48.47
2019-03-20T19:51:28.320Z,46.27
2019-03-20T19:54:00.666Z,48.33
2019-03-20T19:56:31.687Z,47.80
2019-03-20T19:59:08.214Z,47.17
2019-03-20T20:01:39.339Z,48.93
2019-03-20T20:04:10.745Z,47.53
2019-03-20T20:06:41.752Z,45.77
2019-03-20T20:09:12.946Z,47.67
2019-03-20T20:11:50.898Z,46.27
2019-03-20T20:14:22.863Z,47.00
2019-03-20T20:16:53.581Z,47.30
2019-03-20T20:19:25.915Z,47.73
2019-03-20T20:21:57.789Z,48.37
2019-03-20T20:24:28.822Z,46.23
2019-03-20T20:27:02.890Z,46.73
2019-03-20T20:29:33.405Z,46.93
2019-03-20T20:32:03.878Z,50.17
2019-03-20T20:34:38.844Z,49.33
2019-03-20T20:37:09.262Z,48.43
2019-03-20T20:39:39.721Z,48.50
2019-03-20T20:42:10.487Z,46.60
2019-03-20T20:44:41.085Z,47.33
2019-03-20T20:47:11.582Z,48.87
2019-03-20T20:49:42.643Z,49.00
2019-03-20T20:52:19.341Z,49.53
2019-03-20T20:54:51.835Z,49.10
2019-03-20T20:57:22.323Z,48.20
2019-03-20T20:59:54.743Z,50.10
2019-03-20T21:02:25.245Z,48.83
2019-03-20T21:04:56.049Z,49.30
2019-03-20T21:07:27.302Z,50.17
2019-03-20T21:09:57.794Z,48.90
2019-03-20T21:12:29.236Z,48.10
2019-03-20T21:14:59.684Z,50.53
2019-03-20T21:17:49.162Z,48.67
2019-03-20T21:20:21.066Z,48.00
2019-03-20T21:24:03.853Z,50.67
2019-03-20T21:26:37.852Z,50.00
2019-03-20T21:30:10.147Z,50.50
2019-03-20T21:32:45.108Z,50.03
2019-03-20T21:36:24.412Z,50.53
2019-03-20T21:38:58.252Z,48.63
2019-03-20T21:42:41.512Z,51.03
2019-03-20T21:45:59.950Z,49.40
2019-03-20T21:48:34.419Z,50.17
2019-03-20T21:51:20.216Z,48.90
2019-03-20T21:55:00.161Z,49.33
2019-03-20T21:57:54.348Z,48.40
2019-03-20T22:01:40.482Z,49.10
2019-03-20T22:04:11.799Z,48.90
2019-03-20T22:07:07.167Z,47.30
2019-03-20T22:10:39.514Z,48.43
2019-03-20T22:13:53.780Z,48.47
2019-03-20T22:17:27.693Z,45.30
2019-03-20T22:20:39.533Z,41.10
2019-03-20T22:23:49.874Z,41.73
2019-03-20T22:27:03.077Z,44.00
2019-03-20T22:29:34.719Z,43.40
2019-03-20T22:33:15.258Z,42.57
2019-03-20T22:35:59.070Z,43.67
2019-03-20T22:39:36.518Z,43.37
2019-03-20T22:42:31.361Z,43.63
2019-03-20T22:46:32.129Z,43.83
2019-03-20T22:50:02.200Z,45.00
2019-03-20T22:53:32.224Z,43.73
2019-03-20T22:56:39.902Z,45.83
2019-03-20T22:59:11.175Z,43.93
2019-03-20T23:02:23.519Z,46.23
2019-03-20T23:04:58.897Z,45.07
2019-03-20T23:07:30.526Z,45.43
2019-03-20T23:10:02.269Z,44.57
2019-03-20T23:12:34.024Z,45.93
2019-03-20T23:15:06.300Z,48.73
2019-03-20T23:17:39.152Z,46.27
2019-03-20T23:20:15.061Z,46.83
2019-03-20T23:22:46.412Z,45.30
2019-03-20T23:25:17.735Z,52.10
2019-03-20T23:27:49.135Z,47.93
2019-03-20T23:30:24.133Z,46.00
2019-03-20T23:32:56.375Z,47.27
2019-03-20T23:35:29.724Z,43.60
2019-03-20T23:38:00.977Z,45.97
2019-03-20T23:40:32.399Z,45.27
2019-03-20T23:43:04.014Z,45.37
2019-03-20T23:45:35.299Z,44.63
2019-03-20T23:48:36.659Z,45.97
2019-03-20T23:51:13.085Z,46.53
2019-03-20T23:53:49.566Z,49.20
2019-03-20T23:56:22.342Z,48.70
2019-03-20T23:58:53.582Z,50.63
